createdAt,value
2019-05-21T00:00:55.110Z,55.30
2019-05-21T00:01:55.071Z,57.10
2019-05-21T00:02:55.046Z,57.60
2019-05-21T00:03:54.998Z,58.40
2019-05-21T00:04:54.962Z,57.60
2019-05-21T00:05:54.925Z,61.40
2019-05-21T00:06:54.879Z,59.90
2019-05-21T00:07:54.845Z,59.20
2019-05-21T00:08:54.806Z,65.50
2019-05-21T00:09:54.774Z,63.30
2019-05-21T00:10:54.740Z,71.10
2019-05-21T00:11:54.697Z,67.00
2019-05-21T00:12:54.662Z,64.40
2019-05-21T00:13:54.617Z,71.10
2019-05-21T00:14:54.581Z,70.70
2019-05-21T00:15:54.540Z,71.60
2019-05-21T00:16:54.504Z,78.00
2019-05-21T00:17:54.469Z,77.80
2019-05-21T00:18:54.425Z,68.90
2019-05-21T00:19:54.391Z,75.20
2019-05-21T00:20:54.353Z,74.70
2019-05-21T00:21:54.308Z,83.50
2019-05-21T00:22:54.276Z,83.00
2019-05-21T00:23:54.239Z,84.90
2019-05-21T00:24:54.231Z,81.50
2019-05-21T00:25:54.160Z,80.80
2019-05-21T00:26:54.121Z,86.30
2019-05-21T00:27:54.087Z,89.40
2019-05-21T00:28:54.048Z,86.80
2019-05-21T00:29:54.014Z,88.70
2019-05-21T00:30:53.963Z,88.70
2019-05-21T00:31:53.928Z,91.40
2019-05-21T00:32:53.894Z,89.40
2019-05-21T00:33:53.850Z,93.70
2019-05-21T00:34:53.817Z,91.90
2019-05-21T00:35:53.776Z,90.00
2019-05-21T00:36:53.882Z,86.70
2019-05-21T00:37:53.702Z,91.10
2019-05-21T00:38:53.658Z,90.30
2019-05-21T00:39:53.635Z,94.20
2019-05-21T00:40:53.583Z,89.10
2019-05-21T00:41:53.545Z,91.70
2019-05-21T00:42:53.511Z,94.50
2019-05-21T00:43:53.472Z,95.10
2019-05-21T00:44:53.435Z,96.50
2019-05-21T00:45:53.396Z,98.30
2019-05-21T00:46:53.364Z,101.60
2019-05-21T00:47:53.329Z,98.40
2019-05-21T00:48:53.297Z,95.00
2019-05-21T00:49:53.248Z,101.30
2019-05-21T00:50:53.202Z,100.10
2019-05-21T00:52:06.418Z,96.50
2019-05-21T00:52:53.125Z,97.20
2019-05-21T00:53:53.091Z,103.80
2019-05-21T00:54:53.052Z,102.30
2019-05-21T00:55:53.016Z,100.50
2019-05-21T00:56:52.978Z,99.10
2019-05-21T00:57:52.939Z,96.20
2019-05-21T00:58:52.896Z,95.30
2019-05-21T00:59:52.861Z,95.40
2019-05-21T01:00:52.820Z,96.40
2019-05-21T01:01:52.790Z,99.50
2019-05-21T01:02:52.743Z,97.40
2019-05-21T01:03:52.720Z,95.10
2019-05-21T01:05:00.832Z,93.30
2019-05-21T01:05:52.624Z,86.30
2019-05-21T01:06:52.594Z,89.90
2019-05-21T01:07:52.552Z,83.80
2019-05-21T01:08:52.515Z,78.60
2019-05-21T01:09:52.476Z,80.70
2019-05-21T01:10:52.434Z,77.60
2019-05-21T01:11:52.399Z,78.10
2019-05-21T01:12:52.358Z,81.80
2019-05-21T01:13:52.319Z,74.20
2019-05-21T01:14:52.293Z,79.90
2019-05-21T01:15:52.244Z,77.40
2019-05-21T01:16:52.205Z,81.00
2019-05-21T01:17:52.164Z,81.80
2019-05-21T01:18:52.134Z,83.10
2019-05-21T01:19:52.099Z,86.60
2019-05-21T01:20:52.086Z,90.90
2019-05-21T01:21:52.015Z,93.00
2019-05-21T01:22:51.973Z,84.70
2019-05-21T01:23:51.934Z,90.90
2019-05-21T01:24:51.897Z,89.60
2019-05-21T01:25:51.853Z,94.40
2019-05-21T01:26:51.834Z,95.80
2019-05-21T01:27:51.781Z,103.10
2019-05-21T01:28:51.746Z,96.20
2019-05-21T01:29:51.708Z,99.70
2019-05-21T01:30:51.664Z,98.50
2019-05-21T01:31:51.626Z,96.80
2019-05-21T01:32:51.591Z,98.10
2019-05-21T01:33:51.553Z,95.20
2019-05-21T01:34:51.511Z,94.90
2019-05-21T01:35:51.479Z,90.20
2019-05-21T01:36:51.503Z,99.00
2019-05-21T01:37:51.396Z,95.40
2019-05-21T01:38:51.366Z,99.40
2019-05-21T01:39:51.321Z,94.50
2019-05-21T01:40:51.303Z,89.20
2019-05-21T01:41:51.260Z,93.90
2019-05-21T01:42:51.213Z,91.40
2019-05-21T01:43:51.167Z,87.60
2019-05-21T01:44:51.127Z,92.40
2019-05-21T01:45:51.110Z,90.20
2019-05-21T01:46:51.055Z,94.50
2019-05-21T01:47:51.014Z,89.10
2019-05-21T01:48:50.974Z,85.10
2019-05-21T01:49:50.933Z,86.80
2019-05-21T01:50:50.900Z,80.50
2019-05-21T01:51:50.862Z,83.60
2019-05-21T01:52:50.823Z,77.70
2019-05-21T01:53:50.788Z,77.50
2019-05-21T01:54:50.755Z,74.80
2019-05-21T01:55:50.707Z,75.10
2019-05-21T01:56:50.664Z,72.90
2019-05-21T01:57:50.640Z,66.90
2019-05-21T01:58:50.594Z,63.80
2019-05-21T01:59:50.552Z,60.30
2019-05-21T02:00:50.520Z,59.70
2019-05-21T02:01:50.476Z,63.30
2019-05-21T02:02:50.439Z,59.60
2019-05-21T02:03:50.408Z,64.50
2019-05-21T02:04:50.424Z,60.90
2019-05-21T02:05:50.337Z,58.00
2019-05-21T02:06:50.281Z,59.30
2019-05-21T02:07:50.249Z,59.30
2019-05-21T02:08:50.205Z,53.60
2019-05-21T02:09:50.176Z,52.10
2019-05-21T02:10:50.133Z,57.80
2019-05-21T02:11:50.093Z,55.40
2019-05-21T02:12:50.052Z,53.10
2019-05-21T02:13:50.016Z,50.00
2019-05-21T02:14:49.977Z,52.20
2019-05-21T02:15:49.934Z,48.20
2019-05-21T02:16:49.896Z,44.90
2019-05-21T02:17:49.857Z,44.50
2019-05-21T02:18:49.849Z,42.80
2019-05-21T02:19:49.784Z,42.80
2019-05-21T02:20:49.743Z,43.50
2019-05-21T02:21:49.710Z,42.20
2019-05-21T02:22:49.675Z,42.70
2019-05-21T02:23:49.628Z,38.40
2019-05-21T02:24:49.598Z,37.40
2019-05-21T02:25:49.554Z,42.80
2019-05-21T02:26:49.512Z,42.40
2019-05-21T02:27:49.475Z,39.60
2019-05-21T02:28:49.436Z,39.80
2019-05-21T02:29:49.398Z,37.00
2019-05-21T02:30:49.364Z,38.30
2019-05-21T02:31:49.327Z,39.20
2019-05-21T02:32:49.291Z,36.90
2019-05-21T02:33:49.247Z,41.80
2019-05-21T02:34:49.203Z,36.90
2019-05-21T02:35:54.436Z,39.10
2019-05-21T02:36:49.130Z,35.40
2019-05-21T02:37:49.092Z,34.70
2019-05-21T02:38:49.049Z,35.60
2019-05-21T02:39:49.015Z,35.90
2019-05-21T02:40:48.980Z,34.10
2019-05-21T02:41:48.936Z,35.90
2019-05-21T02:42:48.900Z,34.50
2019-05-21T02:43:48.861Z,33.40
2019-05-21T02:44:48.824Z,37.80
2019-05-21T02:45:48.786Z,37.40
2019-05-21T02:46:48.747Z,37.60
2019-05-21T02:47:48.740Z,38.00
2019-05-21T02:48:48.667Z,34.10
2019-05-21T02:49:48.634Z,39.50
2019-05-21T02:50:48.595Z,37.20
2019-05-21T02:51:48.561Z,41.40
2019-05-21T02:52:48.513Z,35.90
2019-05-21T02:53:48.473Z,33.80
2019-05-21T02:54:48.443Z,36.10
2019-05-21T02:55:48.426Z,38.80
2019-05-21T02:56:48.367Z,42.40
2019-05-21T02:57:48.332Z,39.70
2019-05-21T02:58:48.288Z,41.30
2019-05-21T02:59:48.250Z,42.20
2019-05-21T03:00:48.209Z,42.90
2019-05-21T03:01:48.204Z,44.30
2019-05-21T03:02:48.138Z,45.30
2019-05-21T03:03:48.097Z,41.30
2019-05-21T03:04:48.059Z,42.30
2019-05-21T03:05:48.016Z,42.40
2019-05-21T03:06:47.985Z,39.80
2019-05-21T03:07:47.949Z,38.20
2019-05-21T03:08:47.900Z,39.80
2019-05-21T03:09:47.869Z,39.40
2019-05-21T03:10:47.835Z,38.70
2019-05-21T03:11:47.794Z,38.60
2019-05-21T03:12:47.754Z,41.50
2019-05-21T03:13:47.724Z,40.00
2019-05-21T03:14:47.717Z,39.10
2019-05-21T03:15:47.633Z,39.80
2019-05-21T03:16:47.595Z,37.10
2019-05-21T03:17:47.567Z,35.40
2019-05-21T03:18:47.525Z,32.10
2019-05-21T03:19:47.480Z,37.20
2019-05-21T03:20:47.481Z,32.80
2019-05-21T03:37:01.214Z,20.90
2019-05-21T03:38:01.219Z,24.60
2019-05-21T03:39:01.149Z,31.80
2019-05-21T03:40:01.322Z,30.70
2019-05-21T03:41:01.027Z,30.70
2019-05-21T03:42:00.981Z,30.60
2019-05-21T03:43:00.936Z,30.30
2019-05-21T03:44:00.898Z,25.40
2019-05-21T03:45:01.253Z,27.40
2019-05-21T03:46:00.824Z,26.30
2019-05-21T03:47:00.774Z,29.60
2019-05-21T03:48:00.732Z,26.70
2019-05-21T03:49:00.713Z,27.70
2019-05-21T03:50:00.654Z,26.10
2019-05-21T03:51:00.648Z,27.60
2019-05-21T03:52:00.576Z,25.10
2019-05-21T03:53:00.534Z,24.30
2019-05-21T03:54:00.490Z,24.20
2019-05-21T03:55:03.023Z,25.50
2019-05-21T03:56:00.414Z,24.50
2019-05-21T03:57:00.375Z,23.70
2019-05-21T03:58:00.341Z,21.70
2019-05-21T03:59:00.299Z,21.10
2019-05-21T04:00:00.297Z,21.80
2019-05-21T04:01:00.226Z,22.30
2019-05-21T04:02:00.185Z,21.50
2019-05-21T04:03:00.142Z,21.10
2019-05-21T04:04:00.106Z,20.10
2019-05-21T04:05:00.215Z,21.40
2019-05-21T04:06:00.035Z,25.50
2019-05-21T04:06:59.989Z,23.90
2019-05-21T04:07:59.955Z,20.70
2019-05-21T04:08:59.917Z,21.50
2019-05-21T04:09:59.873Z,19.90
2019-05-21T04:10:59.830Z,21.50
2019-05-21T04:11:59.788Z,20.50
2019-05-21T04:12:59.755Z,17.30
2019-05-21T04:13:59.717Z,19.80
2019-05-21T04:14:59.673Z,17.60
2019-05-21T04:15:59.642Z,17.50
2019-05-21T04:16:59.599Z,17.60
2019-05-21T04:17:59.571Z,15.90
2019-05-21T04:18:59.519Z,18.20
2019-05-21T04:19:59.481Z,16.60
2019-05-21T04:20:59.444Z,15.50
2019-05-21T04:21:59.403Z,16.50
2019-05-21T04:22:59.363Z,16.50
2019-05-21T04:23:59.328Z,16.30
2019-05-21T04:24:59.282Z,17.60
2019-05-21T04:25:59.246Z,14.70
2019-05-21T04:26:59.212Z,17.10
2019-05-21T04:27:59.173Z,14.60
2019-05-21T04:28:59.131Z,16.30
2019-05-21T04:29:59.102Z,14.90
2019-05-21T04:30:59.056Z,14.60
2019-05-21T04:31:59.021Z,13.10
2019-05-21T04:32:58.988Z,15.20
2019-05-21T04:33:58.946Z,13.90
2019-05-21T04:34:58.899Z,16.00
2019-05-21T04:35:58.867Z,16.00
2019-05-21T04:37:09.828Z,15.40
2019-05-21T04:37:58.786Z,12.30
2019-05-21T04:38:58.747Z,15.50
2019-05-21T04:39:58.732Z,14.90
2019-05-21T04:40:58.671Z,13.70
2019-05-21T04:41:58.629Z,12.90
2019-05-21T04:43:01.847Z,12.70
2019-05-21T04:43:58.549Z,11.70
2019-05-21T04:44:58.515Z,12.20
2019-05-21T04:45:58.489Z,11.00
2019-05-21T04:46:58.439Z,11.30
2019-05-21T04:47:58.414Z,9.70
2019-05-21T04:48:58.359Z,10.00
2019-05-21T04:49:58.322Z,10.80
2019-05-21T04:50:58.280Z,11.40
2019-05-21T04:51:58.241Z,10.90
2019-05-21T04:52:58.210Z,11.10
2019-05-21T04:53:58.172Z,11.50
2019-05-21T04:54:58.135Z,11.00
2019-05-21T04:55:58.091Z,11.00
2019-05-21T04:56:58.049Z,12.10
2019-05-21T04:57:58.013Z,10.40
2019-05-21T04:58:57.978Z,11.20
2019-05-21T04:59:57.944Z,10.80
2019-05-21T05:00:57.902Z,11.00
2019-05-21T05:01:57.923Z,11.90
2019-05-21T05:02:57.821Z,11.40
2019-05-21T05:03:57.791Z,11.50
2019-05-21T05:04:57.747Z,12.00
2019-05-21T05:05:57.708Z,12.00
2019-05-21T05:06:57.666Z,12.80
2019-05-21T05:07:57.638Z,13.00
2019-05-21T05:08:57.589Z,15.20
2019-05-21T05:09:57.552Z,15.20
2019-05-21T05:10:57.512Z,14.80
2019-05-21T05:11:57.477Z,18.00
2019-05-21T05:12:57.443Z,16.10
2019-05-21T05:13:57.405Z,17.50
2019-05-21T05:14:57.357Z,16.70
2019-05-21T05:15:57.318Z,17.00
2019-05-21T05:16:57.288Z,18.30
2019-05-21T05:17:57.246Z,16.30
2019-05-21T05:18:57.205Z,17.90
2019-05-21T05:19:57.170Z,19.30
2019-05-21T05:20:57.125Z,18.00
2019-05-21T05:21:57.089Z,18.80
2019-05-21T05:22:57.049Z,17.60
2019-05-21T05:23:57.008Z,17.60
2019-05-21T05:24:56.982Z,19.80
2019-05-21T05:25:56.937Z,18.50
2019-05-21T05:26:56.900Z,19.40
2019-05-21T05:27:56.864Z,22.50
2019-05-21T05:28:56.819Z,21.20
2019-05-21T05:29:56.783Z,20.30
2019-05-21T05:30:56.747Z,20.10
2019-05-21T05:31:56.706Z,20.80
2019-05-21T05:32:56.669Z,20.90
2019-05-21T05:33:56.626Z,19.40
2019-05-21T05:34:56.593Z,23.10
2019-05-21T05:35:56.549Z,22.20
2019-05-21T05:36:56.516Z,23.80
2019-05-21T05:37:56.475Z,22.40
2019-05-21T05:38:56.436Z,24.20
2019-05-21T05:39:56.401Z,21.20
2019-05-21T05:40:56.357Z,22.40
2019-05-21T05:41:56.318Z,21.90
2019-05-21T05:42:56.281Z,20.60
2019-05-21T05:43:56.241Z,21.00
2019-05-21T05:44:56.208Z,23.70
2019-05-21T05:45:56.168Z,21.50
2019-05-21T05:46:56.145Z,21.90
2019-05-21T05:47:56.139Z,22.40
2019-05-21T05:48:56.057Z,20.90
2019-05-21T05:49:56.013Z,18.60
2019-05-21T05:50:55.975Z,17.70
2019-05-21T05:51:55.942Z,18.40
2019-05-21T05:52:55.893Z,18.60
2019-05-21T05:53:55.856Z,16.70
2019-05-21T05:54:55.818Z,15.80
2019-05-21T05:55:55.781Z,16.40
2019-05-21T05:56:55.750Z,13.60
2019-05-21T05:57:55.705Z,13.50
2019-05-21T05:58:55.669Z,11.30
2019-05-21T05:59:55.702Z,12.90
2019-05-21T06:00:55.587Z,12.80
2019-05-21T06:01:55.548Z,15.20
2019-05-21T06:02:55.511Z,13.50
2019-05-21T06:03:55.473Z,13.90
2019-05-21T06:04:55.430Z,13.50
2019-05-21T06:05:55.396Z,12.50
2019-05-21T06:06:55.362Z,12.30
2019-05-21T06:07:59.906Z,14.30
2019-05-21T06:08:55.282Z,11.40
2019-05-21T06:09:55.242Z,12.10
2019-05-21T06:10:55.204Z,13.70
2019-05-21T06:11:55.164Z,12.80
2019-05-21T06:12:55.124Z,11.50
2019-05-21T06:13:55.088Z,11.00
2019-05-21T06:14:55.050Z,10.50
2019-05-21T06:15:55.014Z,8.90
2019-05-21T06:16:54.973Z,7.90
2019-05-21T06:17:55.007Z,8.90
2019-05-21T06:18:54.908Z,9.00
2019-05-21T06:19:54.873Z,7.40
2019-05-21T06:20:54.821Z,7.40
2019-05-21T06:21:54.786Z,7.40
2019-05-21T06:22:54.747Z,6.30
2019-05-21T06:23:54.709Z,6.40
2019-05-21T06:24:54.698Z,7.70
2019-05-21T06:25:54.626Z,6.10
2019-05-21T06:26:54.583Z,7.30
2019-05-21T06:27:54.545Z,6.60
2019-05-21T06:28:54.520Z,5.80
2019-05-21T06:29:54.472Z,6.00
2019-05-21T06:30:54.432Z,5.80
2019-05-21T06:31:54.402Z,5.30
2019-05-21T06:32:54.362Z,5.30
2019-05-21T06:33:54.338Z,4.60
2019-05-21T06:34:54.278Z,4.90
2019-05-21T06:35:54.242Z,4.30
2019-05-21T06:36:54.215Z,6.20
2019-05-21T06:37:54.167Z,5.40
2019-05-21T06:38:54.123Z,5.90
2019-05-21T06:39:54.086Z,5.50
2019-05-21T06:40:54.052Z,5.70
2019-05-21T06:41:54.010Z,5.70
2019-05-21T06:42:53.977Z,5.70
2019-05-21T06:43:53.939Z,5.60
2019-05-21T06:44:53.890Z,5.20
2019-05-21T06:45:53.858Z,5.50
2019-05-21T06:46:53.841Z,6.40
2019-05-21T06:47:53.776Z,6.60
2019-05-21T06:48:53.753Z,6.20
2019-05-21T06:49:53.705Z,7.30
2019-05-21T06:50:53.660Z,6.70
2019-05-21T06:51:53.628Z,6.80
2019-05-21T06:52:53.593Z,5.60
2019-05-21T06:53:53.551Z,6.20
2019-05-21T06:54:53.510Z,6.40
2019-05-21T06:55:53.487Z,5.50
2019-05-21T06:56:53.432Z,7.40
2019-05-21T06:57:53.394Z,5.90
2019-05-21T06:58:53.365Z,6.00
2019-05-21T09:50:37.219Z,30.50
2019-05-21T09:51:37.152Z,33.10
2019-05-21T09:52:37.108Z,37.60
2019-05-21T09:53:37.089Z,39.60
2019-05-21T09:54:37.015Z,36.00
2019-05-21T09:55:36.979Z,39.60
2019-05-21T09:56:36.983Z,39.30
2019-05-21T09:57:36.897Z,37.30
2019-05-21T09:58:36.884Z,40.80
2019-05-21T09:59:36.812Z,39.10
2019-05-21T10:00:36.768Z,38.60
2019-05-21T10:01:36.728Z,36.50
2019-05-21T10:02:38.539Z,31.40
2019-05-21T10:03:44.923Z,28.60
2019-05-21T10:04:37.365Z,34.40
2019-05-21T10:05:38.234Z,33.20
2019-05-21T10:06:41.169Z,34.90
2019-05-21T10:07:40.374Z,35.10
2019-05-21T10:08:37.284Z,39.30
2019-05-21T10:09:36.422Z,39.40
2019-05-21T10:10:36.592Z,37.60
2019-05-21T10:11:37.324Z,36.40
2019-05-21T10:13:37.136Z,38.60
2019-05-21T10:14:43.672Z,39.10
2019-05-21T10:15:48.085Z,38.60
2019-05-21T10:16:43.479Z,38.40
2019-05-21T10:17:40.453Z,36.70
2019-05-21T10:18:45.069Z,35.10
2019-05-21T10:19:45.094Z,36.90
2019-05-21T10:20:36.957Z,37.10
2019-05-21T10:21:41.494Z,38.80
2019-05-21T10:22:43.823Z,33.90
2019-05-21T10:23:48.130Z,33.90
2019-05-21T10:24:43.898Z,33.00
2019-05-21T10:25:41.273Z,38.70
2019-05-21T10:26:44.191Z,34.20
2019-05-21T10:27:47.327Z,36.80
2019-05-21T10:28:49.785Z,33.30
2019-05-21T10:30:36.302Z,33.40
2019-05-21T10:31:44.269Z,33.90
2019-05-21T10:32:41.987Z,31.70
2019-05-21T10:33:44.107Z,27.60
2019-05-21T10:34:35.653Z,24.80
2019-05-21T10:35:35.420Z,24.30
2019-05-21T10:36:44.637Z,23.90
2019-05-21T10:37:54.519Z,27.30
2019-05-21T10:38:46.827Z,26.40
2019-05-21T10:39:49.578Z,25.00
2019-05-21T10:42:51.765Z,29.10
2019-05-21T10:43:48.126Z,24.40
2019-05-21T10:44:39.142Z,27.00
2019-05-21T10:45:40.493Z,27.00
2019-05-21T10:46:46.881Z,24.40
2019-05-21T10:48:46.776Z,28.00
2019-05-21T10:49:55.427Z,29.30
2019-05-21T10:56:25.848Z,33.80
2019-05-21T10:57:21.961Z,34.20
2019-05-21T10:58:23.845Z,34.30
2019-05-21T10:59:25.109Z,34.70
2019-05-21T11:00:23.442Z,39.80
2019-05-21T11:08:24.371Z,37.00
2019-05-21T11:13:10.926Z,36.60
2019-05-21T11:14:30.470Z,38.00
2019-05-21T11:18:22.832Z,37.80
2019-05-21T11:19:23.860Z,39.60
2019-05-21T11:20:21.943Z,39.40
2019-05-21T11:21:28.588Z,37.80
2019-05-21T11:22:23.699Z,38.80
2019-05-21T11:23:23.442Z,35.80
2019-05-21T11:24:24.763Z,40.30
2019-05-21T11:27:16.766Z,32.50
2019-05-21T11:28:14.943Z,30.70
2019-05-21T11:29:15.900Z,34.00
2019-05-21T11:30:23.251Z,32.80
2019-05-21T11:31:24.546Z,30.70
2019-05-21T11:37:16.682Z,34.20
2019-05-21T11:38:21.157Z,34.80
2019-05-21T11:39:19.166Z,35.80
2019-05-21T11:43:19.908Z,35.70
2019-05-21T11:44:31.143Z,34.50
2019-05-21T11:47:14.936Z,33.60
2019-05-21T11:48:14.747Z,34.10
2019-05-21T11:49:15.909Z,32.60
2019-05-21T11:50:14.485Z,35.50
2019-05-21T11:51:17.019Z,35.50
2019-05-21T11:52:17.810Z,38.40
2019-05-21T11:54:18.466Z,35.80
2019-05-21T11:55:19.587Z,32.90
2019-05-21T11:56:17.754Z,34.00
2019-05-21T11:58:17.814Z,34.40
2019-05-21T11:59:16.689Z,34.30
2019-05-21T12:00:21.589Z,32.90
2019-05-21T12:01:16.572Z,31.60
2019-05-21T12:05:21.186Z,35.60
2019-05-21T12:12:28.723Z,30.50
2019-05-21T12:15:00.917Z,31.50
2019-05-21T12:16:03.935Z,29.70
2019-05-21T12:16:59.867Z,33.60
2019-05-21T12:18:00.485Z,30.10
2019-05-21T12:19:02.201Z,31.20
2019-05-21T12:20:01.618Z,30.20
2019-05-21T12:21:10.147Z,32.90
2019-05-21T12:22:06.685Z,32.10
2019-05-21T12:23:04.787Z,32.60
2019-05-21T12:24:03.788Z,34.70
2019-05-21T12:25:03.574Z,32.50
2019-05-21T12:26:17.111Z,32.60
2019-05-21T12:26:59.079Z,31.80
2019-05-21T12:29:27.623Z,31.40
2019-05-21T12:30:01.605Z,28.80
2019-05-21T12:32:41.675Z,30.70
2019-05-21T12:33:42.474Z,29.00
2019-05-21T12:38:55.692Z,31.50
2019-05-21T12:39:53.391Z,31.00
2019-05-21T12:40:54.373Z,29.30
2019-05-21T12:41:51.372Z,26.10
2019-05-21T12:42:54.908Z,28.40
2019-05-21T12:43:55.475Z,28.60
2019-05-21T12:52:24.828Z,26.20
2019-05-21T12:53:16.724Z,28.40
2019-05-21T12:54:18.827Z,30.20
2019-05-21T12:55:18.936Z,27.90
2019-05-21T12:56:18.534Z,27.30
2019-05-21T13:05:53.948Z,24.10
2019-05-21T13:09:00.916Z,24.20
2019-05-21T13:10:06.804Z,23.30
2019-05-21T13:11:02.833Z,23.30
2019-05-21T13:12:00.428Z,21.50
2019-05-21T13:13:03.077Z,19.00
2019-05-21T13:14:08.871Z,19.80
2019-05-21T13:15:02.696Z,20.40
2019-05-21T13:16:00.017Z,19.40
2019-05-21T13:23:04.391Z,22.40
2019-05-21T13:24:01.281Z,25.80
2019-05-21T13:26:46.250Z,26.40
2019-05-21T13:30:00.927Z,25.10
2019-05-21T13:30:53.843Z,26.70
2019-05-21T13:31:51.945Z,27.80
2019-05-21T13:32:53.952Z,23.70
2019-05-21T13:33:54.617Z,24.10
2019-05-21T13:35:06.531Z,22.90
2019-05-21T13:35:53.333Z,23.60
2019-05-21T13:36:54.897Z,21.10
2019-05-21T13:37:54.952Z,21.70
2019-05-21T13:38:51.648Z,20.00
2019-05-21T13:39:51.625Z,20.30
2019-05-21T13:40:51.675Z,23.30
2019-05-21T13:48:57.932Z,21.30
2019-05-21T13:51:52.605Z,22.60
2019-05-21T13:53:54.986Z,22.40
2019-05-21T13:57:23.785Z,28.00
2019-05-21T13:58:23.761Z,26.20
2019-05-21T13:59:23.632Z,28.90
2019-05-21T14:00:23.605Z,31.10
2019-05-21T14:01:39.224Z,32.80
2019-05-21T14:02:23.503Z,31.60
2019-05-21T14:03:23.482Z,34.50
2019-05-21T14:04:23.429Z,33.40
2019-05-21T14:05:23.392Z,36.90
2019-05-21T14:06:23.364Z,34.20
2019-05-21T14:07:23.361Z,36.20
2019-05-21T14:08:23.279Z,36.40
2019-05-21T14:09:23.248Z,36.00
2019-05-21T14:10:23.196Z,36.20
2019-05-21T14:11:23.162Z,36.50
2019-05-21T14:12:23.121Z,35.80
2019-05-21T14:13:23.088Z,37.30
2019-05-21T14:14:23.050Z,36.90
2019-05-21T14:15:23.016Z,36.00
2019-05-21T14:16:22.983Z,35.80
2019-05-21T14:17:22.938Z,38.20
2019-05-21T14:18:22.943Z,37.40
2019-05-21T14:19:22.867Z,36.50
2019-05-21T14:20:22.821Z,38.90
2019-05-21T14:21:22.786Z,41.10
2019-05-21T14:22:22.741Z,42.50
2019-05-21T14:23:22.708Z,39.10
2019-05-21T14:24:22.676Z,37.10
2019-05-21T14:25:22.637Z,41.80
2019-05-21T14:26:22.589Z,39.70
2019-05-21T14:27:22.549Z,36.80
2019-05-21T14:28:22.515Z,35.40
2019-05-21T14:29:22.475Z,34.90
2019-05-21T14:30:22.501Z,38.80
2019-05-21T14:31:22.397Z,40.80
2019-05-21T14:32:22.361Z,41.40
2019-05-21T14:33:22.336Z,37.60
2019-05-21T14:34:22.288Z,38.60
2019-05-21T14:35:22.236Z,37.30
2019-05-21T14:36:22.231Z,38.60
2019-05-21T14:37:22.265Z,39.80
2019-05-21T14:38:22.129Z,39.00
2019-05-21T14:39:22.109Z,38.60
2019-05-21T14:40:31.649Z,39.90
2019-05-21T14:41:22.016Z,41.00
2019-05-21T14:42:21.967Z,39.80
2019-05-21T14:43:21.932Z,39.90
2019-05-21T14:44:21.892Z,43.50
2019-05-21T14:45:21.865Z,43.70
2019-05-21T14:46:21.827Z,42.80
2019-05-21T14:47:21.784Z,46.00
2019-05-21T14:48:21.740Z,42.10
2019-05-21T14:49:21.723Z,44.00
2019-05-21T14:50:21.672Z,43.00
2019-05-21T14:51:21.644Z,44.70
2019-05-21T14:52:21.593Z,42.70
2019-05-21T14:53:21.549Z,43.20
2019-05-21T14:54:26.832Z,41.70
2019-05-21T14:55:21.473Z,45.00
2019-05-21T14:56:21.447Z,40.10
2019-05-21T14:57:21.402Z,42.70
2019-05-21T14:58:21.366Z,42.90
2019-05-21T14:59:21.327Z,43.80
2019-05-21T15:00:21.313Z,46.20
2019-05-21T15:01:21.255Z,42.10
2019-05-21T15:02:21.214Z,43.00
2019-05-21T15:03:25.416Z,43.00
2019-05-21T15:04:21.295Z,43.70
2019-05-21T15:05:21.123Z,41.70
2019-05-21T15:06:21.058Z,46.30
2019-05-21T15:07:21.022Z,46.40
2019-05-21T15:08:20.985Z,46.40
2019-05-21T15:09:20.970Z,46.50
2019-05-21T15:10:20.912Z,44.60
2019-05-21T15:11:20.869Z,47.80
2019-05-21T15:12:20.854Z,42.90
2019-05-21T15:13:20.790Z,45.50
2019-05-21T15:14:20.757Z,47.30
2019-05-21T15:15:20.711Z,49.20
2019-05-21T15:16:20.697Z,46.40
2019-05-21T15:17:20.711Z,47.20
2019-05-21T15:18:22.367Z,47.20
2019-05-21T15:19:20.567Z,49.00
2019-05-21T15:20:20.532Z,48.00
2019-05-21T15:21:20.490Z,49.80
2019-05-21T15:34:44.464Z,50.20
2019-05-21T15:35:44.021Z,57.30
2019-05-21T15:36:44.004Z,56.40
2019-05-21T15:37:45.076Z,57.30
2019-05-21T15:38:50.264Z,59.00
2019-05-21T15:39:43.466Z,56.00
2019-05-21T15:40:43.418Z,57.70
2019-05-21T15:41:43.375Z,54.10
2019-05-21T15:42:43.336Z,57.20
2019-05-21T15:43:43.298Z,55.50
2019-05-21T15:44:43.264Z,57.90
2019-05-21T15:45:43.224Z,57.10
2019-05-21T15:46:48.510Z,60.80
2019-05-21T15:47:43.147Z,63.00
2019-05-21T15:48:43.102Z,62.40
2019-05-21T15:49:43.064Z,66.00
2019-05-21T15:50:43.029Z,61.80
2019-05-21T15:51:42.988Z,61.90
2019-05-21T15:52:42.943Z,62.90
2019-05-21T15:53:42.905Z,63.60
2019-05-21T15:54:42.883Z,56.90
2019-05-21T15:55:42.836Z,56.80
2019-05-21T15:56:42.797Z,58.10
2019-05-21T15:57:42.759Z,55.40
2019-05-21T15:58:42.720Z,58.40
2019-05-21T15:59:42.679Z,56.30
2019-05-21T16:00:42.639Z,57.20
2019-05-21T16:01:42.621Z,61.30
2019-05-21T16:02:42.560Z,62.70
2019-05-21T16:03:42.522Z,60.20
2019-05-21T16:04:42.483Z,53.10
2019-05-21T16:05:42.451Z,70.50
2019-05-21T16:06:42.419Z,75.30
2019-05-21T16:07:42.373Z,61.30
2019-05-21T16:08:42.407Z,59.00
2019-05-21T16:09:42.301Z,56.90
2019-05-21T16:10:42.257Z,54.40
2019-05-21T16:11:42.219Z,55.90
2019-05-21T16:12:42.187Z,53.40
2019-05-21T16:13:42.140Z,53.40
2019-05-21T16:14:42.104Z,54.90
2019-05-21T16:15:42.071Z,57.30
2019-05-21T16:16:42.029Z,54.80
2019-05-21T16:17:41.989Z,58.90
2019-05-21T16:18:41.953Z,61.70
2019-05-21T16:19:41.915Z,56.70
2019-05-21T16:20:42.718Z,52.50
2019-05-21T16:21:41.841Z,53.70
2019-05-21T16:22:41.801Z,54.70
2019-05-21T16:23:41.761Z,52.90
2019-05-21T16:24:41.719Z,53.80
2019-05-21T16:25:41.690Z,57.50
2019-05-21T16:26:41.647Z,57.40
2019-05-21T16:27:41.606Z,57.00
2019-05-21T16:28:41.572Z,55.80
2019-05-21T16:29:41.536Z,57.00
2019-05-21T16:30:41.500Z,58.20
2019-05-21T16:31:41.457Z,57.60
2019-05-21T16:32:41.463Z,54.90
2019-05-21T16:33:41.380Z,54.30
2019-05-21T16:34:41.340Z,53.40
2019-05-21T16:35:41.312Z,52.40
2019-05-21T16:36:41.268Z,49.30
2019-05-21T16:37:41.229Z,58.50
2019-05-21T16:38:41.191Z,55.60
2019-05-21T16:39:41.152Z,58.50
2019-05-21T16:40:41.113Z,61.40
2019-05-21T16:41:44.900Z,61.70
2019-05-21T16:42:41.044Z,66.50
2019-05-21T16:43:41.018Z,63.50
2019-05-21T16:44:40.960Z,57.70
2019-05-21T16:45:40.927Z,59.70
2019-05-21T16:46:42.709Z,62.60
2019-05-21T16:47:46.122Z,62.40
2019-05-21T16:48:40.807Z,60.70
2019-05-21T16:49:40.768Z,62.50
2019-05-21T16:50:40.734Z,62.90
2019-05-21T16:51:43.335Z,63.20
2019-05-21T16:52:40.657Z,69.40
2019-05-21T16:53:40.637Z,66.60
2019-05-21T16:54:40.581Z,60.80
2019-05-21T16:55:40.548Z,66.50
2019-05-21T16:56:40.509Z,63.10
2019-05-21T16:57:40.496Z,60.20
2019-05-21T16:58:40.444Z,61.20
2019-05-21T16:59:40.430Z,60.20
2019-05-21T17:00:40.353Z,63.30
2019-05-21T17:01:40.314Z,69.20
2019-05-21T17:02:40.275Z,70.40
2019-05-21T17:03:40.240Z,70.70
2019-05-21T17:04:40.204Z,76.10
2019-05-21T17:05:40.182Z,68.60
2019-05-21T17:06:49.083Z,69.70
2019-05-21T17:08:44.549Z,67.00
2019-05-21T17:09:44.476Z,69.90
2019-05-21T17:10:44.435Z,73.00
2019-05-21T17:11:57.628Z,77.90
2019-05-21T17:12:44.810Z,75.40
2019-05-21T17:13:44.321Z,78.70
2019-05-21T17:14:44.289Z,80.10
2019-05-21T17:15:44.246Z,82.10
2019-05-21T17:16:44.208Z,80.30
2019-05-21T17:17:44.173Z,86.10
2019-05-21T17:18:44.134Z,78.20
2019-05-21T17:19:44.095Z,81.30
2019-05-21T17:20:44.065Z,82.20
2019-05-21T17:21:44.017Z,85.50
2019-05-21T17:22:43.989Z,92.40
2019-05-21T17:23:43.947Z,87.40
2019-05-21T17:24:43.905Z,80.40
2019-05-21T17:25:43.863Z,83.50
2019-05-21T17:26:43.827Z,85.00
2019-05-21T17:27:43.785Z,81.70
2019-05-21T17:28:43.747Z,87.20
2019-05-21T17:29:43.725Z,109.20
2019-05-21T17:30:43.674Z,110.30
2019-05-21T17:31:43.696Z,89.80
2019-05-21T17:32:43.614Z,80.20
2019-05-21T17:33:43.560Z,77.20
2019-05-21T17:34:43.528Z,66.00
2019-05-21T17:35:43.487Z,67.10
2019-05-21T17:36:43.456Z,73.00
2019-05-21T17:37:43.412Z,71.90
2019-05-21T17:38:43.376Z,69.20
2019-05-21T17:39:43.334Z,69.60
2019-05-21T17:40:43.297Z,71.50
2019-05-21T17:41:43.259Z,70.20
2019-05-21T17:42:43.225Z,68.90
2019-05-21T17:43:43.187Z,71.80
2019-05-21T17:44:43.146Z,70.50
2019-05-21T17:45:43.106Z,74.30
2019-05-21T17:46:43.066Z,77.30
2019-05-21T17:47:43.031Z,74.00
2019-05-21T17:48:42.996Z,77.10
2019-05-21T17:49:42.958Z,74.30